sensor_id;sensor_type;location;lat;lon;timestamp;P1;durP1;ratioP1;P2;durP2;ratioP2
21438;SDS011;10880;50.302;18.736;2023-01-15T00:01:32;7.33;;;3.53;;
21438;SDS011;10880;50.302;18.736;2023-01-15T00:04:00;8.07;;;4.10;;
21438;SDS011;10880;50.302;18.736;2023-01-15T00:06:29;7.50;;;3.90;;
21438;SDS011;10880;50.302;18.736;2023-01-15T00:08:57;10.57;;;4.10;;
21438;SDS011;10880;50.302;18.736;2023-01-15T00:11:26;7.00;;;3.70;;
21438;SDS011;10880;50.302;18.736;2023-01-15T00:13:53;7.17;;;4.03;;
21438;SDS011;10880;50.302;18.736;2023-01-15T00:16:21;11.63;;;5.60;;
21438;SDS011;10880;50.302;18.736;2023-01-15T00:18:50;12.07;;;5.90;;
21438;SDS011;10880;50.302;18.736;2023-01-15T00:21:21;11.20;;;5.20;;
21438;SDS011;10880;50.302;18.736;2023-01-15T00:23:49;13.00;;;5.93;;
21438;SDS011;10880;50.302;18.736;2023-01-15T00:26:35;16.73;;;7.87;;
21438;SDS011;10880;50.302;18.736;2023-01-15T00:29:20;17.93;;;7.87;;
21438;SDS011;10880;50.302;18.736;2023-01-15T00:31:58;14.90;;;6.93;;
21438;SDS011;10880;50.302;18.736;2023-01-15T00:34:29;14.80;;;6.90;;
21438;SDS011;10880;50.302;18.736;2023-01-15T00:36:56;15.93;;;7.10;;
21438;SDS011;10880;50.302;18.736;2023-01-15T00:39:23;12.90;;;5.83;;
21438;SDS011;10880;50.302;18.736;2023-01-15T00:41:51;10.73;;;5.27;;
21438;SDS011;10880;50.302;18.736;2023-01-15T00:44:18;10.57;;;4.80;;
21438;SDS011;10880;50.302;18.736;2023-01-15T00:46:48;8.50;;;4.47;;
21438;SDS011;10880;50.302;18.736;2023-01-15T00:49:14;5.37;;;3.37;;
21438;SDS011;10880;50.302;18.736;2023-01-15T00:51:41;12.00;;;5.47;;
21438;SDS011;10880;50.302;18.736;2023-01-15T00:54:08;15.77;;;5.50;;
21438;SDS011;10880;50.302;18.736;2023-01-15T00:56:37;13.17;;;5.37;;
21438;SDS011;10880;50.302;18.736;2023-01-15T00:59:05;12.17;;;4.90;;
21438;SDS011;10880;50.302;18.736;2023-01-15T01:01:32;8.27;;;4.70;;
21438;SDS011;10880;50.302;18.736;2023-01-15T01:03:58;5.80;;;3.43;;
21438;SDS011;10880;50.302;18.736;2023-01-15T01:06:25;4.53;;;3.30;;
21438;SDS011;10880;50.302;18.736;2023-01-15T01:08:52;6.67;;;3.40;;
21438;SDS011;10880;50.302;18.736;2023-01-15T01:11:20;5.90;;;3.90;;
21438;SDS011;10880;50.302;18.736;2023-01-15T01:13:59;5.03;;;3.23;;
21438;SDS011;10880;50.302;18.736;2023-01-15T01:18:56;5.40;;;3.50;;
21438;SDS011;10880;50.302;18.736;2023-01-15T01:21:25;6.57;;;3.40;;
21438;SDS011;10880;50.302;18.736;2023-01-15T01:23:51;5.37;;;3.10;;
21438;SDS011;10880;50.302;18.736;2023-01-15T01:26:18;5.23;;;3.00;;
21438;SDS011;10880;50.302;18.736;2023-01-15T01:28:49;6.40;;;3.50;;
21438;SDS011;10880;50.302;18.736;2023-01-15T01:31:18;7.03;;;3.77;;
21438;SDS011;10880;50.302;18.736;2023-01-15T01:33:49;4.37;;;2.87;;
21438;SDS011;10880;50.302;18.736;2023-01-15T01:36:16;5.80;;;3.53;;
21438;SDS011;10880;50.302;18.736;2023-01-15T01:38:46;7.00;;;3.67;;
21438;SDS011;10880;50.302;18.736;2023-01-15T01:41:15;7.83;;;4.70;;
21438;SDS011;10880;50.302;18.736;2023-01-15T01:46:31;6.23;;;4.03;;
21438;SDS011;10880;50.302;18.736;2023-01-15T01:49:04;7.17;;;4.07;;
21438;SDS011;10880;50.302;18.736;2023-01-15T01:51:35;8.00;;;4.40;;
21438;SDS011;10880;50.302;18.736;2023-01-15T01:54:31;7.70;;;4.00;;
21438;SDS011;10880;50.302;18.736;2023-01-15T01:57:02;6.77;;;3.53;;
21438;SDS011;10880;50.302;18.736;2023-01-15T01:59:30;6.40;;;3.87;;
21438;SDS011;10880;50.302;18.736;2023-01-15T02:02:00;4.67;;;3.20;;
21438;SDS011;10880;50.302;18.736;2023-01-15T02:04:27;4.23;;;3.10;;
21438;SDS011;10880;50.302;18.736;2023-01-15T02:06:59;4.93;;;3.30;;
21438;SDS011;10880;50.302;18.736;2023-01-15T02:09:28;4.77;;;2.90;;
21438;SDS011;10880;50.302;18.736;2023-01-15T02:11:56;6.83;;;4.23;;
21438;SDS011;10880;50.302;18.736;2023-01-15T02:14:40;7.17;;;3.40;;
21438;SDS011;10880;50.302;18.736;2023-01-15T02:17:24;4.93;;;3.20;;
21438;SDS011;10880;50.302;18.736;2023-01-15T02:28:32;6.90;;;3.93;;
21438;SDS011;10880;50.302;18.736;2023-01-15T02:33:32;5.17;;;3.60;;
21438;SDS011;10880;50.302;18.736;2023-01-15T02:36:06;4.90;;;3.70;;
21438;SDS011;10880;50.302;18.736;2023-01-15T02:38:40;6.23;;;4.03;;
21438;SDS011;10880;50.302;18.736;2023-01-15T02:41:12;6.10;;;3.90;;
21438;SDS011;10880;50.302;18.736;2023-01-15T02:43:47;5.17;;;3.37;;
21438;SDS011;10880;50.302;18.736;2023-01-15T02:46:21;4.63;;;3.10;;
21438;SDS011;10880;50.302;18.736;2023-01-15T02:49:00;3.53;;;2.90;;
21438;SDS011;10880;50.302;18.736;2023-01-15T02:51:37;3.83;;;3.07;;
21438;SDS011;10880;50.302;18.736;2023-01-15T02:54:12;6.57;;;4.03;;
21438;SDS011;10880;50.302;18.736;2023-01-15T02:56:43;3.63;;;3.20;;
21438;SDS011;10880;50.302;18.736;2023-01-15T02:59:14;4.77;;;2.90;;
21438;SDS011;10880;50.302;18.736;2023-01-15T03:01:50;4.27;;;3.20;;
21438;SDS011;10880;50.302;18.736;2023-01-15T03:04:30;4.60;;;3.13;;
21438;SDS011;10880;50.302;18.736;2023-01-15T03:07:18;5.03;;;3.40;;
21438;SDS011;10880;50.302;18.736;2023-01-15T03:09:49;4.40;;;2.90;;
21438;SDS011;10880;50.302;18.736;2023-01-15T03:12:21;3.83;;;3.37;;
21438;SDS011;10880;50.302;18.736;2023-01-15T03:14:59;5.20;;;3.40;;
21438;SDS011;10880;50.302;18.736;2023-01-15T03:20:15;4.03;;;3.10;;
21438;SDS011;10880;50.302;18.736;2023-01-15T03:22:48;4.20;;;3.00;;
21438;SDS011;10880;50.302;18.736;2023-01-15T03:25:23;4.97;;;3.10;;
21438;SDS011;10880;50.302;18.736;2023-01-15T03:27:57;3.93;;;3.17;;
21438;SDS011;10880;50.302;18.736;2023-01-15T03:30:30;4.00;;;2.87;;
21438;SDS011;10880;50.302;18.736;2023-01-15T03:32:58;3.67;;;2.70;;
21438;SDS011;10880;50.302;18.736;2023-01-15T03:38:33;3.90;;;2.83;;
21438;SDS011;10880;50.302;18.736;2023-01-15T03:43:44;3.63;;;2.80;;
21438;SDS011;10880;50.302;18.736;2023-01-15T03:49:15;5.43;;;2.70;;
21438;SDS011;10880;50.302;18.736;2023-01-15T03:54:20;3.73;;;2.43;;
21438;SDS011;10880;50.302;18.736;2023-01-15T03:57:14;3.57;;;2.77;;
21438;SDS011;10880;50.302;18.736;2023-01-15T03:59:49;5.37;;;3.03;;
21438;SDS011;10880;50.302;18.736;2023-01-15T04:02:19;4.00;;;2.90;;
21438;SDS011;10880;50.302;18.736;2023-01-15T04:04:49;3.57;;;2.70;;
21438;SDS011;10880;50.302;18.736;2023-01-15T04:07:18;3.63;;;2.70;;
21438;SDS011;10880;50.302;18.736;2023-01-15T04:09:45;3.17;;;2.80;;
21438;SDS011;10880;50.302;18.736;2023-01-15T04:12:13;3.63;;;2.90;;
21438;SDS011;10880;50.302;18.736;2023-01-15T04:14:44;4.50;;;3.10;;
21438;SDS011;10880;50.302;18.736;2023-01-15T04:17:16;3.53;;;2.90;;
21438;SDS011;10880;50.302;18.736;2023-01-15T04:19:42;3.67;;;2.70;;
21438;SDS011;10880;50.302;18.736;2023-01-15T04:22:09;2.87;;;2.60;;
21438;SDS011;10880;50.302;18.736;2023-01-15T04:24:36;4.93;;;3.10;;
21438;SDS011;10880;50.302;18.736;2023-01-15T04:27:05;2.80;;;2.60;;
21438;SDS011;10880;50.302;18.736;2023-01-15T04:29:32;4.93;;;2.73;;
21438;SDS011;10880;50.302;18.736;2023-01-15T04:31:58;5.00;;;3.40;;
21438;SDS011;10880;50.302;18.736;2023-01-15T04:34:25;4.77;;;3.17;;
21438;SDS011;10880;50.302;18.736;2023-01-15T04:36:53;4.97;;;2.80;;
21438;SDS011;10880;50.302;18.736;2023-01-15T04:39:21;3.70;;;2.97;;
21438;SDS011;10880;50.302;18.736;2023-01-15T04:41:48;3.23;;;2.90;;
21438;SDS011;10880;50.302;18.736;2023-01-15T04:44:34;6.23;;;3.63;;
21438;SDS011;10880;50.302;18.736;2023-01-15T04:47:01;6.00;;;3.80;;
21438;SDS011;10880;50.302;18.736;2023-01-15T04:49:30;3.30;;;2.90;;
21438;SDS011;10880;50.302;18.736;2023-01-15T04:52:00;3.63;;;2.87;;
21438;SDS011;10880;50.302;18.736;2023-01-15T04:54:27;4.13;;;3.07;;
21438;SDS011;10880;50.302;18.736;2023-01-15T04:56:54;3.00;;;2.60;;
21438;SDS011;10880;50.302;18.736;2023-01-15T04:59:25;3.93;;;2.93;;
21438;SDS011;10880;50.302;18.736;2023-01-15T05:01:52;4.60;;;2.70;;
21438;SDS011;10880;50.302;18.736;2023-01-15T05:04:19;5.23;;;2.97;;
21438;SDS011;10880;50.302;18.736;2023-01-15T05:06:45;3.67;;;2.70;;
21438;SDS011;10880;50.302;18.736;2023-01-15T05:09:12;3.87;;;2.67;;
21438;SDS011;10880;50.302;18.736;2023-01-15T05:11:38;2.87;;;2.37;;
21438;SDS011;10880;50.302;18.736;2023-01-15T05:14:06;3.47;;;3.00;;
21438;SDS011;10880;50.302;18.736;2023-01-15T05:16:32;3.30;;;2.70;;
21438;SDS011;10880;50.302;18.736;2023-01-15T05:19:01;2.97;;;2.60;;
21438;SDS011;10880;50.302;18.736;2023-01-15T05:21:33;3.57;;;2.87;;
21438;SDS011;10880;50.302;18.736;2023-01-15T05:24:02;5.00;;;3.30;;
21438;SDS011;10880;50.302;18.736;2023-01-15T05:26:30;4.57;;;2.90;;
21438;SDS011;10880;50.302;18.736;2023-01-15T05:28:59;5.57;;;3.27;;
21438;SDS011;10880;50.302;18.736;2023-01-15T05:31:26;5.37;;;3.07;;
21438;SDS011;10880;50.302;18.736;2023-01-15T05:33:54;7.93;;;3.63;;
21438;SDS011;10880;50.302;18.736;2023-01-15T05:36:21;6.17;;;3.27;;
21438;SDS011;10880;50.302;18.736;2023-01-15T05:38:53;6.57;;;3.27;;
21438;SDS011;10880;50.302;18.736;2023-01-15T05:41:20;4.93;;;3.00;;
21438;SDS011;10880;50.302;18.736;2023-01-15T05:44:08;3.43;;;2.60;;
21438;SDS011;10880;50.302;18.736;2023-01-15T05:46:36;6.27;;;3.33;;
21438;SDS011;10880;50.302;18.736;2023-01-15T05:49:06;5.50;;;3.60;;
21438;SDS011;10880;50.302;18.736;2023-01-15T05:51:34;3.40;;;2.70;;
21438;SDS011;10880;50.302;18.736;2023-01-15T05:54:03;5.23;;;3.20;;
21438;SDS011;10880;50.302;18.736;2023-01-15T05:56:30;4.50;;;3.40;;
21438;SDS011;10880;50.302;18.736;2023-01-15T05:59:00;4.70;;;3.03;;
21438;SDS011;10880;50.302;18.736;2023-01-15T06:01:31;5.73;;;3.40;;
21438;SDS011;10880;50.302;18.736;2023-01-15T06:03:58;4.17;;;2.80;;
21438;SDS011;10880;50.302;18.736;2023-01-15T06:06:28;6.13;;;3.67;;
21438;SDS011;10880;50.302;18.736;2023-01-15T06:08:55;4.27;;;3.00;;
21438;SDS011;10880;50.302;18.736;2023-01-15T06:11:22;5.37;;;3.17;;
21438;SDS011;10880;50.302;18.736;2023-01-15T06:13:49;3.70;;;2.67;;
21438;SDS011;10880;50.302;18.736;2023-01-15T06:16:16;4.47;;;3.17;;
21438;SDS011;10880;50.302;18.736;2023-01-15T06:18:43;3.87;;;2.90;;
21438;SDS011;10880;50.302;18.736;2023-01-15T06:21:13;4.93;;;3.17;;
21438;SDS011;10880;50.302;18.736;2023-01-15T06:23:41;4.20;;;2.97;;
21438;SDS011;10880;50.302;18.736;2023-01-15T06:26:12;4.83;;;2.70;;
21438;SDS011;10880;50.302;18.736;2023-01-15T06:28:43;3.03;;;2.63;;
21438;SDS011;10880;50.302;18.736;2023-01-15T06:31:13;4.77;;;3.27;;
21438;SDS011;10880;50.302;18.736;2023-01-15T06:33:41;4.40;;;3.03;;
21438;SDS011;10880;50.302;18.736;2023-01-15T06:36:09;2.67;;;2.40;;
21438;SDS011;10880;50.302;18.736;2023-01-15T06:38:37;2.60;;;2.40;;
21438;SDS011;10880;50.302;18.736;2023-01-15T06:41:06;3.30;;;2.60;;
21438;SDS011;10880;50.302;18.736;2023-01-15T06:43:55;2.47;;;2.17;;
21438;SDS011;10880;50.302;18.736;2023-01-15T06:46:42;2.40;;;2.20;;
21438;SDS011;10880;50.302;18.736;2023-01-15T06:49:33;2.40;;;2.20;;
21438;SDS011;10880;50.302;18.736;2023-01-15T06:52:00;2.73;;;2.30;;
21438;SDS011;10880;50.302;18.736;2023-01-15T06:54:28;2.70;;;2.50;;
21438;SDS011;10880;50.302;18.736;2023-01-15T06:56:55;4.57;;;3.43;;
21438;SDS011;10880;50.302;18.736;2023-01-15T06:59:21;2.90;;;2.57;;
21438;SDS011;10880;50.302;18.736;2023-01-15T07:01:48;4.53;;;3.00;;
21438;SDS011;10880;50.302;18.736;2023-01-15T07:04:14;3.30;;;2.90;;
21438;SDS011;10880;50.302;18.736;2023-01-15T07:06:41;5.33;;;3.40;;
21438;SDS011;10880;50.302;18.736;2023-01-15T07:09:08;5.73;;;3.43;;
21438;SDS011;10880;50.302;18.736;2023-01-15T07:11:35;4.67;;;2.40;;
21438;SDS011;10880;50.302;18.736;2023-01-15T07:14:17;4.20;;;2.60;;
21438;SDS011;10880;50.302;18.736;2023-01-15T07:16:45;6.57;;;3.60;;
21438;SDS011;10880;50.302;18.736;2023-01-15T07:19:12;5.27;;;3.30;;
21438;SDS011;10880;50.302;18.736;2023-01-15T07:21:39;3.00;;;2.60;;
21438;SDS011;10880;50.302;18.736;2023-01-15T07:24:07;4.80;;;3.17;;
21438;SDS011;10880;50.302;18.736;2023-01-15T07:26:35;4.23;;;2.93;;
21438;SDS011;10880;50.302;18.736;2023-01-15T07:29:02;4.30;;;3.30;;
21438;SDS011;10880;50.302;18.736;2023-01-15T07:31:32;3.90;;;3.03;;
21438;SDS011;10880;50.302;18.736;2023-01-15T07:33:58;10.33;;;6.23;;
21438;SDS011;10880;50.302;18.736;2023-01-15T07:36:27;7.37;;;4.33;;
21438;SDS011;10880;50.302;18.736;2023-01-15T07:38:54;10.90;;;7.70;;
21438;SDS011;10880;50.302;18.736;2023-01-15T07:41:20;8.33;;;5.67;;
21438;SDS011;10880;50.302;18.736;2023-01-15T07:44:10;8.27;;;5.20;;
21438;SDS011;10880;50.302;18.736;2023-01-15T07:46:57;10.73;;;5.43;;
21438;SDS011;10880;50.302;18.736;2023-01-15T07:49:43;7.73;;;4.97;;
21438;SDS011;10880;50.302;18.736;2023-01-15T07:52:12;9.43;;;5.37;;
21438;SDS011;10880;50.302;18.736;2023-01-15T07:54:39;5.50;;;3.80;;
21438;SDS011;10880;50.302;18.736;2023-01-15T07:57:09;6.37;;;4.03;;
21438;SDS011;10880;50.302;18.736;2023-01-15T07:59:37;6.13;;;3.83;;
21438;SDS011;10880;50.302;18.736;2023-01-15T08:02:04;4.40;;;3.20;;
21438;SDS011;10880;50.302;18.736;2023-01-15T08:04:31;4.57;;;3.20;;
21438;SDS011;10880;50.302;18.736;2023-01-15T08:06:58;3.17;;;2.67;;
21438;SDS011;10880;50.302;18.736;2023-01-15T08:09:26;4.33;;;3.60;;
21438;SDS011;10880;50.302;18.736;2023-01-15T08:11:53;5.13;;;3.80;;
21438;SDS011;10880;50.302;18.736;2023-01-15T08:14:38;4.63;;;3.07;;
21438;SDS011;10880;50.302;18.736;2023-01-15T08:17:24;4.07;;;2.90;;
21438;SDS011;10880;50.302;18.736;2023-01-15T08:19:50;8.10;;;4.57;;
21438;SDS011;10880;50.302;18.736;2023-01-15T08:22:17;5.03;;;3.73;;
21438;SDS011;10880;50.302;18.736;2023-01-15T08:24:44;5.00;;;3.83;;
21438;SDS011;10880;50.302;18.736;2023-01-15T08:27:15;4.50;;;3.50;;
21438;SDS011;10880;50.302;18.736;2023-01-15T08:29:43;5.17;;;3.50;;
21438;SDS011;10880;50.302;18.736;2023-01-15T08:32:16;4.53;;;3.53;;
21438;SDS011;10880;50.302;18.736;2023-01-15T08:34:45;4.27;;;3.20;;
21438;SDS011;10880;50.302;18.736;2023-01-15T08:37:12;7.37;;;3.93;;
21438;SDS011;10880;50.302;18.736;2023-01-15T08:39:39;8.50;;;4.67;;
21438;SDS011;10880;50.302;18.736;2023-01-15T08:42:06;6.70;;;4.57;;
21438;SDS011;10880;50.302;18.736;2023-01-15T08:44:35;5.13;;;3.77;;
21438;SDS011;10880;50.302;18.736;2023-01-15T08:47:02;5.27;;;3.43;;
21438;SDS011;10880;50.302;18.736;2023-01-15T08:49:30;7.57;;;4.83;;
21438;SDS011;10880;50.302;18.736;2023-01-15T08:51:56;7.43;;;4.60;;
21438;SDS011;10880;50.302;18.736;2023-01-15T08:54:24;6.43;;;3.97;;
21438;SDS011;10880;50.302;18.736;2023-01-15T08:56:50;7.13;;;4.00;;
21438;SDS011;10880;50.302;18.736;2023-01-15T08:59:17;5.47;;;3.90;;
21438;SDS011;10880;50.302;18.736;2023-01-15T09:01:47;8.13;;;4.43;;
21438;SDS011;10880;50.302;18.736;2023-01-15T09:04:15;7.07;;;4.40;;
21438;SDS011;10880;50.302;18.736;2023-01-15T09:06:43;7.30;;;4.40;;
21438;SDS011;10880;50.302;18.736;2023-01-15T09:09:12;7.37;;;3.93;;
21438;SDS011;10880;50.302;18.736;2023-01-15T09:11:40;7.27;;;4.10;;
21438;SDS011;10880;50.302;18.736;2023-01-15T09:14:13;7.10;;;4.43;;
21438;SDS011;10880;50.302;18.736;2023-01-15T09:16:40;6.03;;;3.77;;
21438;SDS011;10880;50.302;18.736;2023-01-15T09:19:08;6.87;;;4.50;;
21438;SDS011;10880;50.302;18.736;2023-01-15T09:21:36;9.13;;;4.57;;
21438;SDS011;10880;50.302;18.736;2023-01-15T09:24:04;5.47;;;4.07;;
21438;SDS011;10880;50.302;18.736;2023-01-15T09:26:32;5.83;;;4.10;;
21438;SDS011;10880;50.302;18.736;2023-01-15T09:29:01;9.83;;;5.03;;
21438;SDS011;10880;50.302;18.736;2023-01-15T09:31:29;8.67;;;4.60;;
21438;SDS011;10880;50.302;18.736;2023-01-15T09:33:57;7.20;;;4.17;;
21438;SDS011;10880;50.302;18.736;2023-01-15T09:36:29;10.77;;;5.83;;
21438;SDS011;10880;50.302;18.736;2023-01-15T09:39:01;7.90;;;4.73;;
21438;SDS011;10880;50.302;18.736;2023-01-15T09:41:37;7.60;;;4.80;;
21438;SDS011;10880;50.302;18.736;2023-01-15T09:47:41;8.63;;;4.80;;
21438;SDS011;10880;50.302;18.736;2023-01-15T09:50:17;8.10;;;4.40;;
21438;SDS011;10880;50.302;18.736;2023-01-15T09:55:26;9.97;;;5.50;;
21438;SDS011;10880;50.302;18.736;2023-01-15T09:58:02;22.20;;;9.83;;
21438;SDS011;10880;50.302;18.736;2023-01-15T10:00:48;20.80;;;9.23;;
21438;SDS011;10880;50.302;18.736;2023-01-15T10:03:31;21.00;;;9.13;;
21438;SDS011;10880;50.302;18.736;2023-01-15T10:06:14;14.27;;;7.40;;
21438;SDS011;10880;50.302;18.736;2023-01-15T10:08:53;11.60;;;5.97;;
21438;SDS011;10880;50.302;18.736;2023-01-15T10:11:43;9.50;;;5.63;;
21438;SDS011;10880;50.302;18.736;2023-01-15T10:14:44;11.40;;;6.40;;
21438;SDS011;10880;50.302;18.736;2023-01-15T10:17:28;18.37;;;8.50;;
21438;SDS011;10880;50.302;18.736;2023-01-15T10:23:55;18.77;;;8.00;;
21438;SDS011;10880;50.302;18.736;2023-01-15T10:26:36;15.43;;;7.27;;
21438;SDS011;10880;50.302;18.736;2023-01-15T10:29:15;10.90;;;6.63;;
21438;SDS011;10880;50.302;18.736;2023-01-15T10:43:10;12.97;;;6.90;;
21438;SDS011;10880;50.302;18.736;2023-01-15T10:45:43;12.87;;;6.60;;
21438;SDS011;10880;50.302;18.736;2023-01-15T10:48:18;13.60;;;6.57;;
21438;SDS011;10880;50.302;18.736;2023-01-15T10:51:20;16.47;;;7.03;;
21438;SDS011;10880;50.302;18.736;2023-01-15T10:56:40;11.00;;;6.03;;
21438;SDS011;10880;50.302;18.736;2023-01-15T10:59:53;17.93;;;9.10;;
21438;SDS011;10880;50.302;18.736;2023-01-15T11:02:38;27.43;;;11.23;;
21438;SDS011;10880;50.302;18.736;2023-01-15T11:05:18;22.37;;;10.17;;
21438;SDS011;10880;50.302;18.736;2023-01-15T11:07:47;15.70;;;7.77;;
21438;SDS011;10880;50.302;18.736;2023-01-15T11:10:17;17.60;;;8.73;;
21438;SDS011;10880;50.302;18.736;2023-01-15T11:12:53;15.70;;;8.63;;
21438;SDS011;10880;50.302;18.736;2023-01-15T11:15:46;17.57;;;8.90;;
21438;SDS011;10880;50.302;18.736;2023-01-15T11:18:34;11.93;;;6.60;;
21438;SDS011;10880;50.302;18.736;2023-01-15T11:21:26;14.27;;;6.70;;
21438;SDS011;10880;50.302;18.736;2023-01-15T11:23:54;17.27;;;8.07;;
21438;SDS011;10880;50.302;18.736;2023-01-15T11:26:23;16.97;;;7.87;;
21438;SDS011;10880;50.302;18.736;2023-01-15T11:28:52;26.47;;;9.43;;
21438;SDS011;10880;50.302;18.736;2023-01-15T11:31:20;22.80;;;8.97;;
21438;SDS011;10880;50.302;18.736;2023-01-15T11:34:00;31.13;;;9.53;;
21438;SDS011;10880;50.302;18.736;2023-01-15T11:36:28;23.80;;;8.57;;
21438;SDS011;10880;50.302;18.736;2023-01-15T11:38:55;20.63;;;8.03;;
21438;SDS011;10880;50.302;18.736;2023-01-15T11:41:26;13.00;;;5.87;;
21438;SDS011;10880;50.302;18.736;2023-01-15T11:44:11;18.93;;;7.00;;
21438;SDS011;10880;50.302;18.736;2023-01-15T11:46:57;14.27;;;6.73;;
21438;SDS011;10880;50.302;18.736;2023-01-15T11:49:52;11.20;;;5.47;;
21438;SDS011;10880;50.302;18.736;2023-01-15T11:52:56;10.97;;;5.07;;
21438;SDS011;10880;50.302;18.736;2023-01-15T11:55:25;9.33;;;5.07;;
21438;SDS011;10880;50.302;18.736;2023-01-15T11:57:52;7.93;;;4.30;;
21438;SDS011;10880;50.302;18.736;2023-01-15T12:02:51;10.57;;;4.83;;
21438;SDS011;10880;50.302;18.736;2023-01-15T12:05:23;9.23;;;5.37;;
21438;SDS011;10880;50.302;18.736;2023-01-15T12:07:52;8.07;;;4.37;;
21438;SDS011;10880;50.302;18.736;2023-01-15T12:10:27;10.93;;;5.50;;
21438;SDS011;10880;50.302;18.736;2023-01-15T12:16:15;10.40;;;5.73;;
21438;SDS011;10880;50.302;18.736;2023-01-15T12:22:08;15.93;;;7.50;;
21438;SDS011;10880;50.302;18.736;2023-01-15T12:30:28;12.53;;;6.33;;
21438;SDS011;10880;50.302;18.736;2023-01-15T12:33:10;17.90;;;8.23;;
21438;SDS011;10880;50.302;18.736;2023-01-15T12:35:43;13.23;;;7.07;;
21438;SDS011;10880;50.302;18.736;2023-01-15T12:38:26;14.40;;;7.37;;
21438;SDS011;10880;50.302;18.736;2023-01-15T12:41:00;14.33;;;6.57;;
21438;SDS011;10880;50.302;18.736;2023-01-15T12:43:39;12.43;;;6.90;;
21438;SDS011;10880;50.302;18.736;2023-01-15T12:46:30;15.40;;;6.83;;
21438;SDS011;10880;50.302;18.736;2023-01-15T12:49:05;12.33;;;6.47;;
21438;SDS011;10880;50.302;18.736;2023-01-15T12:52:09;15.20;;;7.00;;
21438;SDS011;10880;50.302;18.736;2023-01-15T12:55:12;19.87;;;8.23;;
21438;SDS011;10880;50.302;18.736;2023-01-15T12:57:39;14.73;;;7.47;;
21438;SDS011;10880;50.302;18.736;2023-01-15T13:05:47;17.03;;;8.37;;
21438;SDS011;10880;50.302;18.736;2023-01-15T13:08:33;25.10;;;9.93;;
21438;SDS011;10880;50.302;18.736;2023-01-15T13:11:11;22.33;;;8.83;;
21438;SDS011;10880;50.302;18.736;2023-01-15T13:13:39;16.97;;;7.20;;
21438;SDS011;10880;50.302;18.736;2023-01-15T13:18:44;10.77;;;5.60;;
21438;SDS011;10880;50.302;18.736;2023-01-15T13:21:17;7.70;;;4.37;;
21438;SDS011;10880;50.302;18.736;2023-01-15T13:29:57;7.10;;;3.97;;
21438;SDS011;10880;50.302;18.736;2023-01-15T13:32:49;9.47;;;5.10;;
21438;SDS011;10880;50.302;18.736;2023-01-15T13:35:21;10.43;;;5.10;;
21438;SDS011;10880;50.302;18.736;2023-01-15T13:37:51;9.07;;;4.80;;
21438;SDS011;10880;50.302;18.736;2023-01-15T13:42:54;10.17;;;5.23;;
21438;SDS011;10880;50.302;18.736;2023-01-15T13:45:32;11.80;;;5.10;;
21438;SDS011;10880;50.302;18.736;2023-01-15T13:48:05;11.90;;;6.37;;
21438;SDS011;10880;50.302;18.736;2023-01-15T13:50:53;10.80;;;5.37;;
21438;SDS011;10880;50.302;18.736;2023-01-15T13:53:37;9.57;;;4.33;;
21438;SDS011;10880;50.302;18.736;2023-01-15T13:56:10;18.63;;;7.17;;
21438;SDS011;10880;50.302;18.736;2023-01-15T13:58:56;9.87;;;5.53;;
21438;SDS011;10880;50.302;18.736;2023-01-15T14:01:30;8.50;;;5.07;;
21438;SDS011;10880;50.302;18.736;2023-01-15T14:06:47;8.57;;;4.80;;
21438;SDS011;10880;50.302;18.736;2023-01-15T14:17:41;18.43;;;8.27;;
21438;SDS011;10880;50.302;18.736;2023-01-15T14:28:55;7.50;;;4.40;;
21438;SDS011;10880;50.302;18.736;2023-01-15T14:31:33;8.57;;;4.80;;
21438;SDS011;10880;50.302;18.736;2023-01-15T14:36:49;9.80;;;5.10;;
21438;SDS011;10880;50.302;18.736;2023-01-15T14:41:57;13.90;;;6.43;;
21438;SDS011;10880;50.302;18.736;2023-01-15T14:47:42;8.13;;;4.70;;
21438;SDS011;10880;50.302;18.736;2023-01-15T14:50:24;9.53;;;5.07;;
21438;SDS011;10880;50.302;18.736;2023-01-15T14:53:01;7.07;;;4.43;;
21438;SDS011;10880;50.302;18.736;2023-01-15T14:55:31;10.07;;;5.70;;
21438;SDS011;10880;50.302;18.736;2023-01-15T14:58:05;12.37;;;6.17;;
21438;SDS011;10880;50.302;18.736;2023-01-15T15:00:41;11.00;;;5.60;;
21438;SDS011;10880;50.302;18.736;2023-01-15T15:03:21;8.33;;;4.73;;
21438;SDS011;10880;50.302;18.736;2023-01-15T15:06:07;6.67;;;4.23;;
21438;SDS011;10880;50.302;18.736;2023-01-15T15:08:42;7.13;;;4.13;;
21438;SDS011;10880;50.302;18.736;2023-01-15T15:11:28;8.07;;;4.77;;
21438;SDS011;10880;50.302;18.736;2023-01-15T15:14:45;10.50;;;5.90;;
21438;SDS011;10880;50.302;18.736;2023-01-15T15:17:39;7.90;;;4.33;;
21438;SDS011;10880;50.302;18.736;2023-01-15T15:20:18;6.33;;;4.03;;
21438;SDS011;10880;50.302;18.736;2023-01-15T15:22:48;8.97;;;4.73;;
21438;SDS011;10880;50.302;18.736;2023-01-15T15:25:23;8.10;;;4.50;;
21438;SDS011;10880;50.302;18.736;2023-01-15T15:28:03;6.80;;;4.00;;
21438;SDS011;10880;50.302;18.736;2023-01-15T15:30:35;5.00;;;3.40;;
21438;SDS011;10880;50.302;18.736;2023-01-15T15:33:12;4.93;;;3.23;;
21438;SDS011;10880;50.302;18.736;2023-01-15T15:35:50;5.97;;;3.57;;
21438;SDS011;10880;50.302;18.736;2023-01-15T15:38:22;4.60;;;3.50;;
21438;SDS011;10880;50.302;18.736;2023-01-15T15:40:59;5.87;;;3.43;;
21438;SDS011;10880;50.302;18.736;2023-01-15T15:43:47;4.57;;;3.23;;
21438;SDS011;10880;50.302;18.736;2023-01-15T15:46:46;4.57;;;3.27;;
21438;SDS011;10880;50.302;18.736;2023-01-15T15:49:37;4.23;;;3.27;;
21438;SDS011;10880;50.302;18.736;2023-01-15T15:52:22;5.20;;;3.20;;
21438;SDS011;10880;50.302;18.736;2023-01-15T15:55:00;4.40;;;3.20;;
21438;SDS011;10880;50.302;18.736;2023-01-15T15:57:32;4.00;;;3.10;;
21438;SDS011;10880;50.302;18.736;2023-01-15T16:00:00;5.63;;;3.10;;
21438;SDS011;10880;50.302;18.736;2023-01-15T16:02:33;4.27;;;3.20;;
21438;SDS011;10880;50.302;18.736;2023-01-15T16:05:18;3.63;;;2.87;;
21438;SDS011;10880;50.302;18.736;2023-01-15T16:07:45;3.90;;;2.63;;
21438;SDS011;10880;50.302;18.736;2023-01-15T16:10:16;4.33;;;3.20;;
21438;SDS011;10880;50.302;18.736;2023-01-15T16:12:43;4.37;;;3.00;;
21438;SDS011;10880;50.302;18.736;2023-01-15T16:15:31;3.50;;;2.80;;
21438;SDS011;10880;50.302;18.736;2023-01-15T16:18:01;4.37;;;3.20;;
21438;SDS011;10880;50.302;18.736;2023-01-15T16:20:28;3.47;;;2.80;;
21438;SDS011;10880;50.302;18.736;2023-01-15T16:23:00;3.57;;;3.00;;
21438;SDS011;10880;50.302;18.736;2023-01-15T16:25:37;4.33;;;2.73;;
21438;SDS011;10880;50.302;18.736;2023-01-15T16:28:18;3.37;;;2.80;;
21438;SDS011;10880;50.302;18.736;2023-01-15T16:30:55;3.97;;;2.83;;
21438;SDS011;10880;50.302;18.736;2023-01-15T16:33:23;5.30;;;3.50;;
21438;SDS011;10880;50.302;18.736;2023-01-15T16:35:54;9.83;;;5.40;;
21438;SDS011;10880;50.302;18.736;2023-01-15T16:38:39;8.30;;;4.83;;
21438;SDS011;10880;50.302;18.736;2023-01-15T16:44:09;6.90;;;3.73;;
21438;SDS011;10880;50.302;18.736;2023-01-15T16:47:02;5.33;;;4.10;;
21438;SDS011;10880;50.302;18.736;2023-01-15T16:49:32;5.63;;;4.10;;
21438;SDS011;10880;50.302;18.736;2023-01-15T16:52:01;5.10;;;3.77;;
21438;SDS011;10880;50.302;18.736;2023-01-15T17:02:16;4.47;;;3.40;;
21438;SDS011;10880;50.302;18.736;2023-01-15T17:04:46;6.00;;;4.03;;
21438;SDS011;10880;50.302;18.736;2023-01-15T17:07:21;5.93;;;3.30;;
21438;SDS011;10880;50.302;18.736;2023-01-15T17:09:55;3.37;;;3.03;;
21438;SDS011;10880;50.302;18.736;2023-01-15T17:12:26;5.00;;;3.40;;